sensor_id;sensor_type;location;lat;lon;timestamp;pressure;altitude;pressure_sealevel;temperature;humidity
40872;BME280;26591;43.264;26.940;2023-01-16T00:01:37;99009.19;;;4.00;89.78
40872;BME280;26591;43.264;26.940;2023-01-16T00:04:02;98998.34;;;3.61;91.24
40872;BME280;26591;43.264;26.940;2023-01-16T00:06:28;98998.16;;;3.53;91.95
40872;BME280;26591;43.264;26.940;2023-01-16T00:08:54;98993.66;;;3.76;91.59
40872;BME280;26591;43.264;26.940;2023-01-16T00:11:19;98995.84;;;4.03;90.53
40872;BME280;26591;43.264;26.940;2023-01-16T00:13:45;98996.31;;;4.08;90.68
40872;BME280;26591;43.264;26.940;2023-01-16T00:16:10;98993.25;;;4.24;89.63
40872;BME280;26591;43.264;26.940;2023-01-16T00:18:36;98991.00;;;4.20;89.49
40872;BME280;26591;43.264;26.940;2023-01-16T00:21:01;98993.25;;;4.46;88.77
40872;BME280;26591;43.264;26.940;2023-01-16T00:23:27;98990.06;;;4.42;89.09
40872;BME280;26591;43.264;26.940;2023-01-16T00:25:53;98988.16;;;4.23;88.90
40872;BME280;26591;43.264;26.940;2023-01-16T00:28:18;98981.25;;;4.22;88.38
40872;BME280;26591;43.264;26.940;2023-01-16T00:30:44;98984.75;;;4.32;88.87
40872;BME280;26591;43.264;26.940;2023-01-16T00:33:12;98980.66;;;3.97;89.15
40872;BME280;26591;43.264;26.940;2023-01-16T00:35:38;98975.59;;;4.05;89.32
40872;BME280;26591;43.264;26.940;2023-01-16T00:38:03;98978.63;;;4.22;88.74
40872;BME280;26591;43.264;26.940;2023-01-16T00:40:29;98979.84;;;4.39;88.57
40872;BME280;26591;43.264;26.940;2023-01-16T00:42:54;98978.06;;;4.61;87.75
40872;BME280;26591;43.264;26.940;2023-01-16T00:45:20;98974.50;;;4.50;87.08
40872;BME280;26591;43.264;26.940;2023-01-16T00:47:46;98970.22;;;4.49;87.52
40872;BME280;26591;43.264;26.940;2023-01-16T00:50:11;98960.13;;;4.45;87.59
40872;BME280;26591;43.264;26.940;2023-01-16T00:52:37;98972.81;;;4.39;87.28
40872;BME280;26591;43.264;26.940;2023-01-16T00:58:24;98957.91;;;4.40;87.83
40872;BME280;26591;43.264;26.940;2023-01-16T01:00:49;98955.09;;;4.53;86.85
40872;BME280;26591;43.264;26.940;2023-01-16T01:03:36;98952.53;;;4.41;86.93
40872;BME280;26591;43.264;26.940;2023-01-16T01:06:07;98950.19;;;4.38;86.79
40872;BME280;26591;43.264;26.940;2023-01-16T01:08:33;98953.50;;;4.40;87.02
40872;BME280;26591;43.264;26.940;2023-01-16T01:11:14;98940.53;;;4.39;86.98
40872;BME280;26591;43.264;26.940;2023-01-16T01:13:40;98948.06;;;4.32;86.90
40872;BME280;26591;43.264;26.940;2023-01-16T01:16:06;98943.16;;;4.39;86.96
40872;BME280;26591;43.264;26.940;2023-01-16T01:18:32;98933.81;;;4.46;86.34
40872;BME280;26591;43.264;26.940;2023-01-16T01:20:58;98933.09;;;4.65;86.09
40872;BME280;26591;43.264;26.940;2023-01-16T01:23:23;98940.41;;;4.71;85.97
40872;BME280;26591;43.264;26.940;2023-01-16T01:25:49;98933.81;;;4.46;85.68
40872;BME280;26591;43.264;26.940;2023-01-16T01:28:15;98935.03;;;4.21;85.72
40872;BME280;26591;43.264;26.940;2023-01-16T01:30:41;98931.50;;;4.53;85.49
40872;BME280;26591;43.264;26.940;2023-01-16T01:33:06;98938.47;;;4.21;84.85
40872;BME280;26591;43.264;26.940;2023-01-16T01:35:32;98930.88;;;4.39;84.71
40872;BME280;26591;43.264;26.940;2023-01-16T01:37:57;98937.78;;;4.40;84.29
40872;BME280;26591;43.264;26.940;2023-01-16T01:40:23;98925.19;;;4.34;84.76
40872;BME280;26591;43.264;26.940;2023-01-16T01:42:49;98932.97;;;4.46;83.69
40872;BME280;26591;43.264;26.940;2023-01-16T01:45:19;98928.50;;;4.57;83.68
40872;BME280;26591;43.264;26.940;2023-01-16T01:50:55;98928.72;;;4.23;84.16
40872;BME280;26591;43.264;26.940;2023-01-16T01:55:55;98923.75;;;4.51;83.92
40872;BME280;26591;43.264;26.940;2023-01-16T01:58:25;98923.31;;;4.67;83.95
40872;BME280;26591;43.264;26.940;2023-01-16T02:00:56;98921.09;;;4.72;83.08
40872;BME280;26591;43.264;26.940;2023-01-16T02:03:41;98923.06;;;4.49;82.93
40872;BME280;26591;43.264;26.940;2023-01-16T02:06:14;98918.44;;;4.10;83.74
40872;BME280;26591;43.264;26.940;2023-01-16T02:08:41;98915.44;;;3.94;84.35
40872;BME280;26591;43.264;26.940;2023-01-16T02:11:27;98911.63;;;3.87;84.44
40872;BME280;26591;43.264;26.940;2023-01-16T02:13:59;98913.50;;;3.96;85.42
40872;BME280;26591;43.264;26.940;2023-01-16T02:16:25;98917.53;;;4.21;84.51
40872;BME280;26591;43.264;26.940;2023-01-16T02:19:16;98905.66;;;4.38;84.07
40872;BME280;26591;43.264;26.940;2023-01-16T02:28:00;98899.22;;;4.52;83.45
40872;BME280;26591;43.264;26.940;2023-01-16T02:55:41;98889.16;;;4.05;82.18
40872;BME280;26591;43.264;26.940;2023-01-16T02:58:07;98889.25;;;4.15;82.06
40872;BME280;26591;43.264;26.940;2023-01-16T03:00:37;98875.28;;;4.15;81.36
40872;BME280;26591;43.264;26.940;2023-01-16T03:03:03;98875.09;;;4.27;81.88
40872;BME280;26591;43.264;26.940;2023-01-16T03:05:40;98874.22;;;4.17;81.18
40872;BME280;26591;43.264;26.940;2023-01-16T03:11:09;98872.16;;;4.42;81.09
40872;BME280;26591;43.264;26.940;2023-01-16T03:22:31;98845.53;;;4.16;81.47
40872;BME280;26591;43.264;26.940;2023-01-16T03:25:21;98841.94;;;4.17;80.84
40872;BME280;26591;43.264;26.940;2023-01-16T03:28:40;98844.81;;;4.13;80.86
40872;BME280;26591;43.264;26.940;2023-01-16T03:36:59;98833.31;;;4.26;80.98
40872;BME280;26591;43.264;26.940;2023-01-16T03:39:32;98832.09;;;4.30;80.78
40872;BME280;26591;43.264;26.940;2023-01-16T03:42:04;98830.38;;;4.19;80.59
40872;BME280;26591;43.264;26.940;2023-01-16T03:44:38;98834.78;;;4.19;80.67
40872;BME280;26591;43.264;26.940;2023-01-16T03:47:08;98834.44;;;4.02;80.47
40872;BME280;26591;43.264;26.940;2023-01-16T03:49:45;98830.94;;;3.92;80.34
40872;BME280;26591;43.264;26.940;2023-01-16T03:52:15;98834.00;;;3.97;80.79
40872;BME280;26591;43.264;26.940;2023-01-16T03:57:32;98829.34;;;4.01;80.87
40872;BME280;26591;43.264;26.940;2023-01-16T04:00:00;98825.13;;;4.19;80.11
40872;BME280;26591;43.264;26.940;2023-01-16T04:02:57;98821.03;;;4.26;80.00
40872;BME280;26591;43.264;26.940;2023-01-16T04:05:38;98821.84;;;4.17;80.36
40872;BME280;26591;43.264;26.940;2023-01-16T04:08:27;98817.25;;;4.09;80.39
40872;BME280;26591;43.264;26.940;2023-01-16T04:10:57;98819.09;;;3.97;81.06
40872;BME280;26591;43.264;26.940;2023-01-16T04:13:28;98815.53;;;3.99;81.03
40872;BME280;26591;43.264;26.940;2023-01-16T04:15:57;98828.06;;;3.95;81.49
40872;BME280;26591;43.264;26.940;2023-01-16T04:18:33;98811.66;;;3.93;81.96
40872;BME280;26591;43.264;26.940;2023-01-16T04:20:59;98821.91;;;3.85;81.93
40872;BME280;26591;43.264;26.940;2023-01-16T04:23:25;98820.41;;;3.82;82.03
40872;BME280;26591;43.264;26.940;2023-01-16T04:25:51;98813.97;;;3.65;82.03
40872;BME280;26591;43.264;26.940;2023-01-16T04:28:16;98817.75;;;3.40;82.80
40872;BME280;26591;43.264;26.940;2023-01-16T04:30:42;98805.50;;;3.61;82.53
40872;BME280;26591;43.264;26.940;2023-01-16T04:33:09;98803.88;;;3.81;81.67
40872;BME280;26591;43.264;26.940;2023-01-16T04:35:35;98801.72;;;3.96;81.72
40872;BME280;26591;43.264;26.940;2023-01-16T04:38:00;98804.25;;;4.08;81.45
40872;BME280;26591;43.264;26.940;2023-01-16T04:40:26;98809.41;;;3.88;81.07
40872;BME280;26591;43.264;26.940;2023-01-16T04:42:52;98805.41;;;3.63;82.25
40872;BME280;26591;43.264;26.940;2023-01-16T04:45:20;98796.50;;;3.75;81.43
40872;BME280;26591;43.264;26.940;2023-01-16T04:47:47;98795.31;;;3.79;81.73
40872;BME280;26591;43.264;26.940;2023-01-16T04:50:16;98791.13;;;3.98;81.35
40872;BME280;26591;43.264;26.940;2023-01-16T04:52:48;98786.06;;;4.06;81.18
40872;BME280;26591;43.264;26.940;2023-01-16T04:55:14;98780.94;;;4.05;81.09
40872;BME280;26591;43.264;26.940;2023-01-16T04:57:39;98792.44;;;4.13;81.22
40872;BME280;26591;43.264;26.940;2023-01-16T05:00:07;98791.66;;;3.92;80.83
40872;BME280;26591;43.264;26.940;2023-01-16T05:02:48;98793.09;;;3.75;81.06
40872;BME280;26591;43.264;26.940;2023-01-16T05:05:14;98793.00;;;3.44;81.73
40872;BME280;26591;43.264;26.940;2023-01-16T05:07:39;98792.53;;;3.39;82.10
40872;BME280;26591;43.264;26.940;2023-01-16T05:10:05;98783.56;;;3.53;81.48
40872;BME280;26591;43.264;26.940;2023-01-16T05:12:33;98779.66;;;3.47;81.78
40872;BME280;26591;43.264;26.940;2023-01-16T05:14:59;98781.38;;;3.58;81.88
40872;BME280;26591;43.264;26.940;2023-01-16T05:17:27;98773.22;;;3.72;81.36
40872;BME280;26591;43.264;26.940;2023-01-16T05:19:52;98777.09;;;3.57;81.57
40872;BME280;26591;43.264;26.940;2023-01-16T05:22:18;98777.00;;;3.58;81.81
40872;BME280;26591;43.264;26.940;2023-01-16T05:24:43;98769.50;;;3.54;82.01
40872;BME280;26591;43.264;26.940;2023-01-16T05:27:09;98776.78;;;3.71;81.75
40872;BME280;26591;43.264;26.940;2023-01-16T05:29:34;98772.13;;;3.54;81.78
40872;BME280;26591;43.264;26.940;2023-01-16T05:32:00;98778.66;;;3.59;81.83
40872;BME280;26591;43.264;26.940;2023-01-16T05:34:25;98769.88;;;3.70;81.63
40872;BME280;26591;43.264;26.940;2023-01-16T05:36:51;98766.63;;;3.78;80.86
40872;BME280;26591;43.264;26.940;2023-01-16T05:39:16;98757.91;;;3.67;81.35
40872;BME280;26591;43.264;26.940;2023-01-16T05:41:41;98763.28;;;3.66;81.39
40872;BME280;26591;43.264;26.940;2023-01-16T05:44:07;98761.53;;;3.76;81.37
40872;BME280;26591;43.264;26.940;2023-01-16T05:46:33;98760.19;;;3.61;82.02
40872;BME280;26591;43.264;26.940;2023-01-16T05:48:58;98766.91;;;3.75;81.58
40872;BME280;26591;43.264;26.940;2023-01-16T05:51:23;98762.94;;;3.80;81.37
40872;BME280;26591;43.264;26.940;2023-01-16T05:53:50;98764.47;;;3.62;82.04
40872;BME280;26591;43.264;26.940;2023-01-16T05:56:22;98762.44;;;3.65;82.01
40872;BME280;26591;43.264;26.940;2023-01-16T05:58:47;98766.88;;;3.54;81.82
40872;BME280;26591;43.264;26.940;2023-01-16T06:01:13;98767.59;;;3.77;81.98
40872;BME280;26591;43.264;26.940;2023-01-16T06:03:38;98771.78;;;4.10;81.99
40872;BME280;26591;43.264;26.940;2023-01-16T06:06:04;98765.25;;;4.46;82.08
40872;BME280;26591;43.264;26.940;2023-01-16T06:08:30;98766.59;;;5.00;82.66
40872;BME280;26591;43.264;26.940;2023-01-16T06:10:57;98763.38;;;5.65;83.03
40872;BME280;26591;43.264;26.940;2023-01-16T06:13:22;98772.19;;;5.94;85.18
40872;BME280;26591;43.264;26.940;2023-01-16T06:15:48;98774.97;;;6.58;86.64
40872;BME280;26591;43.264;26.940;2023-01-16T06:18:13;98773.03;;;6.78;86.47
40872;BME280;26591;43.264;26.940;2023-01-16T06:20:40;98767.44;;;7.09;87.20
40872;BME280;26591;43.264;26.940;2023-01-16T06:23:06;98760.75;;;7.33;85.10
40872;BME280;26591;43.264;26.940;2023-01-16T06:25:31;98758.56;;;7.46;78.71
40872;BME280;26591;43.264;26.940;2023-01-16T06:27:57;98753.50;;;7.53;79.25
40872;BME280;26591;43.264;26.940;2023-01-16T06:30:22;98757.63;;;7.82;76.85
40872;BME280;26591;43.264;26.940;2023-01-16T06:32:48;98743.72;;;7.98;72.68
40872;BME280;26591;43.264;26.940;2023-01-16T06:35:21;98734.78;;;8.25;72.41
40872;BME280;26591;43.264;26.940;2023-01-16T06:37:47;98725.03;;;8.18;69.69
40872;BME280;26591;43.264;26.940;2023-01-16T06:40:12;98725.09;;;8.34;71.29
40872;BME280;26591;43.264;26.940;2023-01-16T06:42:38;98722.16;;;8.37;70.06
40872;BME280;26591;43.264;26.940;2023-01-16T06:45:04;98726.22;;;8.23;70.60
40872;BME280;26591;43.264;26.940;2023-01-16T06:47:30;98721.13;;;8.22;69.49
40872;BME280;26591;43.264;26.940;2023-01-16T06:49:56;98712.91;;;8.33;69.28
40872;BME280;26591;43.264;26.940;2023-01-16T06:52:21;98710.28;;;8.33;68.65
40872;BME280;26591;43.264;26.940;2023-01-16T06:54:47;98703.25;;;8.50;68.54
40872;BME280;26591;43.264;26.940;2023-01-16T06:57:13;98701.38;;;8.34;65.79
40872;BME280;26591;43.264;26.940;2023-01-16T06:59:40;98710.06;;;8.61;67.23
40872;BME280;26591;43.264;26.940;2023-01-16T07:02:05;98720.34;;;8.38;66.00
40872;BME280;26591;43.264;26.940;2023-01-16T07:04:31;98720.44;;;8.63;67.09
40872;BME280;26591;43.264;26.940;2023-01-16T07:06:56;98718.94;;;8.68;66.95
40872;BME280;26591;43.264;26.940;2023-01-16T07:09:22;98716.00;;;8.63;65.69
40872;BME280;26591;43.264;26.940;2023-01-16T07:11:54;98709.31;;;8.43;66.54
40872;BME280;26591;43.264;26.940;2023-01-16T07:14:20;98712.75;;;7.92;67.38
40872;BME280;26591;43.264;26.940;2023-01-16T07:17:04;98713.41;;;7.94;68.02
40872;BME280;26591;43.264;26.940;2023-01-16T07:19:54;98704.16;;;8.33;69.04
40872;BME280;26591;43.264;26.940;2023-01-16T07:22:39;98704.94;;;8.17;68.29
40872;BME280;26591;43.264;26.940;2023-01-16T07:25:13;98701.69;;;8.39;69.49
40872;BME280;26591;43.264;26.940;2023-01-16T07:27:40;98702.72;;;8.47;68.97
40872;BME280;26591;43.264;26.940;2023-01-16T07:30:07;98702.00;;;8.20;68.68
40872;BME280;26591;43.264;26.940;2023-01-16T07:32:33;98702.00;;;7.85;70.35
40872;BME280;26591;43.264;26.940;2023-01-16T07:35:08;98699.28;;;8.03;71.16
40872;BME280;26591;43.264;26.940;2023-01-16T07:37:34;98694.69;;;8.05;70.47
40872;BME280;26591;43.264;26.940;2023-01-16T07:39:59;98700.25;;;7.68;71.23
40872;BME280;26591;43.264;26.940;2023-01-16T07:42:25;98696.75;;;7.59;71.68
40872;BME280;26591;43.264;26.940;2023-01-16T07:44:50;98695.31;;;7.99;72.13
40872;BME280;26591;43.264;26.940;2023-01-16T07:47:18;98694.06;;;8.20;71.04
40872;BME280;26591;43.264;26.940;2023-01-16T07:49:44;98692.53;;;8.01;69.61
40872;BME280;26591;43.264;26.940;2023-01-16T07:52:09;98704.09;;;7.82;70.27
40872;BME280;26591;43.264;26.940;2023-01-16T07:54:35;98695.63;;;7.96;69.75
40872;BME280;26591;43.264;26.940;2023-01-16T07:57:04;98695.66;;;7.70;69.98
40872;BME280;26591;43.264;26.940;2023-01-16T07:59:30;98697.53;;;7.86;71.03
40872;BME280;26591;43.264;26.940;2023-01-16T08:01:55;98695.94;;;7.93;71.09
40872;BME280;26591;43.264;26.940;2023-01-16T08:04:20;98696.16;;;7.73;69.53
40872;BME280;26591;43.264;26.940;2023-01-16T08:06:46;98693.69;;;7.45;70.77
40872;BME280;26591;43.264;26.940;2023-01-16T08:09:12;98684.34;;;7.51;70.45
40872;BME280;26591;43.264;26.940;2023-01-16T08:11:38;98703.19;;;7.38;70.98
40872;BME280;26591;43.264;26.940;2023-01-16T08:14:05;98698.88;;;7.37;70.77
40872;BME280;26591;43.264;26.940;2023-01-16T08:16:31;98700.81;;;7.27;70.21
40872;BME280;26591;43.264;26.940;2023-01-16T08:18:57;98714.25;;;7.42;70.76
40872;BME280;26591;43.264;26.940;2023-01-16T08:21:23;98711.31;;;7.27;70.15
40872;BME280;26591;43.264;26.940;2023-01-16T08:23:49;98704.56;;;7.06;71.12
40872;BME280;26591;43.264;26.940;2023-01-16T08:26:14;98708.84;;;7.07;72.01
40872;BME280;26591;43.264;26.940;2023-01-16T08:28:41;98693.53;;;6.84;71.48
40872;BME280;26591;43.264;26.940;2023-01-16T08:31:09;98686.78;;;6.82;72.06
40872;BME280;26591;43.264;26.940;2023-01-16T08:33:37;98690.47;;;6.89;71.51
40872;BME280;26591;43.264;26.940;2023-01-16T08:36:05;98685.34;;;7.06;71.19
40872;BME280;26591;43.264;26.940;2023-01-16T08:38:31;98687.22;;;6.77;73.91
40872;BME280;26591;43.264;26.940;2023-01-16T08:40:57;98680.16;;;6.96;72.60
40872;BME280;26591;43.264;26.940;2023-01-16T08:43:23;98667.50;;;6.99;72.08
40872;BME280;26591;43.264;26.940;2023-01-16T08:46:20;98657.13;;;7.16;72.81
40872;BME280;26591;43.264;26.940;2023-01-16T08:49:10;98649.03;;;7.36;72.51
40872;BME280;26591;43.264;26.940;2023-01-16T08:51:56;98644.59;;;7.36;71.58
40872;BME280;26591;43.264;26.940;2023-01-16T08:54:22;98643.25;;;7.32;70.78
40872;BME280;26591;43.264;26.940;2023-01-16T08:56:47;98637.97;;;7.06;71.74
40872;BME280;26591;43.264;26.940;2023-01-16T08:59:12;98635.47;;;7.22;72.60
40872;BME280;26591;43.264;26.940;2023-01-16T09:01:39;98631.94;;;7.13;72.55
40872;BME280;26591;43.264;26.940;2023-01-16T09:04:06;98629.78;;;7.09;71.56
40872;BME280;26591;43.264;26.940;2023-01-16T09:06:32;98637.81;;;7.07;70.58
40872;BME280;26591;43.264;26.940;2023-01-16T09:09:02;98627.28;;;7.07;70.71
40872;BME280;26591;43.264;26.940;2023-01-16T09:11:28;98631.00;;;7.23;71.98
40872;BME280;26591;43.264;26.940;2023-01-16T09:14:12;98610.66;;;7.59;71.39
40872;BME280;26591;43.264;26.940;2023-01-16T09:16:37;98608.38;;;7.64;70.10
40872;BME280;26591;43.264;26.940;2023-01-16T09:19:03;98596.75;;;7.75;69.74
40872;BME280;26591;43.264;26.940;2023-01-16T09:21:30;98609.97;;;7.92;69.23
40872;BME280;26591;43.264;26.940;2023-01-16T09:23:56;98597.84;;;8.07;68.12
40872;BME280;26591;43.264;26.940;2023-01-16T09:26:21;98593.53;;;8.06;68.79
40872;BME280;26591;43.264;26.940;2023-01-16T09:28:47;98581.97;;;7.99;71.43
40872;BME280;26591;43.264;26.940;2023-01-16T09:31:12;98585.19;;;7.68;72.38
40872;BME280;26591;43.264;26.940;2023-01-16T09:33:38;98584.88;;;7.37;74.14
40872;BME280;26591;43.264;26.940;2023-01-16T09:36:04;98577.25;;;7.25;74.71
40872;BME280;26591;43.264;26.940;2023-01-16T09:38:30;98572.03;;;7.07;75.48
40872;BME280;26591;43.264;26.940;2023-01-16T09:40:57;98581.72;;;6.80;76.69
40872;BME280;26591;43.264;26.940;2023-01-16T09:43:40;98570.41;;;6.62;77.69
40872;BME280;26591;43.264;26.940;2023-01-16T09:46:22;98562.59;;;6.52;78.72
40872;BME280;26591;43.264;26.940;2023-01-16T09:49:02;98548.75;;;6.68;78.84
40872;BME280;26591;43.264;26.940;2023-01-16T09:51:36;98540.56;;;6.71;78.89
40872;BME280;26591;43.264;26.940;2023-01-16T09:56:53;98553.75;;;6.79;78.93
40872;BME280;26591;43.264;26.940;2023-01-16T09:59:47;98542.00;;;6.92;78.22
40872;BME280;26591;43.264;26.940;2023-01-16T10:02:20;98534.44;;;6.89;78.89
40872;BME280;26591;43.264;26.940;2023-01-16T10:04:47;98537.00;;;6.80;78.36
40872;BME280;26591;43.264;26.940;2023-01-16T10:12:47;98513.69;;;6.85;77.55
40872;BME280;26591;43.264;26.940;2023-01-16T10:15:28;98515.84;;;7.16;77.38
40872;BME280;26591;43.264;26.940;2023-01-16T10:18:25;98504.59;;;7.06;77.19
40872;BME280;26591;43.264;26.940;2023-01-16T10:31:48;98497.53;;;7.41;75.22
40872;BME280;26591;43.264;26.940;2023-01-16T10:34:24;98483.09;;;7.62;73.86
40872;BME280;26591;43.264;26.940;2023-01-16T10:36:53;98474.22;;;7.63;72.40
40872;BME280;26591;43.264;26.940;2023-01-16T10:39:22;98484.28;;;7.68;71.85
40872;BME280;26591;43.264;26.940;2023-01-16T10:41:54;98478.19;;;7.84;71.33
40872;BME280;26591;43.264;26.940;2023-01-16T10:44:58;98491.31;;;7.59;69.64
40872;BME280;26591;43.264;26.940;2023-01-16T10:47:45;98488.84;;;7.57;69.42
40872;BME280;26591;43.264;26.940;2023-01-16T10:50:29;98484.22;;;7.59;69.31
40872;BME280;26591;43.264;26.940;2023-01-16T10:52:55;98492.47;;;7.56;68.98
40872;BME280;26591;43.264;26.940;2023-01-16T10:55:22;98468.44;;;7.59;69.32
40872;BME280;26591;43.264;26.940;2023-01-16T10:58:00;98454.22;;;7.36;69.24
40872;BME280;26591;43.264;26.940;2023-01-16T11:00:32;98432.53;;;7.42;70.29
40872;BME280;26591;43.264;26.940;2023-01-16T11:03:12;98443.75;;;7.60;69.70
40872;BME280;26591;43.264;26.940;2023-01-16T11:05:40;98450.69;;;7.70;69.79
40872;BME280;26591;43.264;26.940;2023-01-16T11:10:31;98444.97;;;8.07;69.06
40872;BME280;26591;43.264;26.940;2023-01-16T11:12:57;98437.06;;;8.07;68.89
40872;BME280;26591;43.264;26.940;2023-01-16T11:15:59;98408.38;;;7.96;68.89
40872;BME280;26591;43.264;26.940;2023-01-16T11:18:51;98411.88;;;7.97;68.98
40872;BME280;26591;43.264;26.940;2023-01-16T11:21:24;98386.00;;;7.92;68.64
40872;BME280;26591;43.264;26.940;2023-01-16T11:24:13;98417.44;;;8.02;69.10
40872;BME280;26591;43.264;26.940;2023-01-16T11:26:45;98411.88;;;7.97;68.53
40872;BME280;26591;43.264;26.940;2023-01-16T11:29:16;98396.38;;;7.85;68.14
40872;BME280;26591;43.264;26.940;2023-01-16T11:31:42;98385.69;;;7.87;69.20
40872;BME280;26591;43.264;26.940;2023-01-16T11:34:13;98391.09;;;7.93;69.01
40872;BME280;26591;43.264;26.940;2023-01-16T11:36:40;98385.19;;;7.83;68.88
40872;BME280;26591;43.264;26.940;2023-01-16T11:39:17;98380.53;;;7.60;68.06
40872;BME280;26591;43.264;26.940;2023-01-16T11:41:45;98382.03;;;7.55;68.42
40872;BME280;26591;43.264;26.940;2023-01-16T11:47:00;98370.50;;;7.56;68.82
40872;BME280;26591;43.264;26.940;2023-01-16T11:49:47;98390.41;;;7.58;68.96
40872;BME280;26591;43.264;26.940;2023-01-16T11:52:23;98400.81;;;7.60;69.31
40872;BME280;26591;43.264;26.940;2023-01-16T11:55:03;98388.97;;;7.72;69.74
40872;BME280;26591;43.264;26.940;2023-01-16T12:11:35;98355.69;;;7.79;69.22
40872;BME280;26591;43.264;26.940;2023-01-16T12:14:10;98360.97;;;7.88;68.56
40872;BME280;26591;43.264;26.940;2023-01-16T12:33:15;98344.41;;;8.44;67.06
40872;BME280;26591;43.264;26.940;2023-01-16T12:41:23;98351.22;;;8.30;65.85
40872;BME280;26591;43.264;26.940;2023-01-16T12:45:28;98348.22;;;8.41;64.65
40872;BME280;26591;43.264;26.940;2023-01-16T12:48:02;98349.97;;;8.65;64.86
40872;BME280;26591;43.264;26.940;2023-01-16T12:53:35;98360.50;;;8.74;64.15
40872;BME280;26591;43.264;26.940;2023-01-16T13:01:39;98349.34;;;8.95;64.72
40872;BME280;26591;43.264;26.940;2023-01-16T13:06:53;98335.41;;;9.41;63.95
40872;BME280;26591;43.264;26.940;2023-01-16T13:09:32;98343.53;;;9.08;64.29
40872;BME280;26591;43.264;26.940;2023-01-16T13:12:18;98345.84;;;9.03;63.79
40872;BME280;26591;43.264;26.940;2023-01-16T13:15:13;98335.13;;;9.27;63.64
40872;BME280;26591;43.264;26.940;2023-01-16T13:17:46;98323.41;;;9.07;63.42
40872;BME280;26591;43.264;26.940;2023-01-16T13:20:14;98332.63;;;9.11;63.51
40872;BME280;26591;43.264;26.940;2023-01-16T13:22:49;98323.78;;;8.95;63.95
40872;BME280;26591;43.264;26.940;2023-01-16T13:25:36;98317.25;;;8.83;63.81
40872;BME280;26591;43.264;26.940;2023-01-16T13:30:54;98304.34;;;8.88;64.02
40872;BME280;26591;43.264;26.940;2023-01-16T13:33:22;98311.69;;;8.78;64.67
40872;BME280;26591;43.264;26.940;2023-01-16T13:41:25;98301.97;;;9.01;65.15
40872;BME280;26591;43.264;26.940;2023-01-16T13:46:40;98292.41;;;9.00;65.03
40872;BME280;26591;43.264;26.940;2023-01-16T13:49:06;98294.75;;;8.95;65.25
40872;BME280;26591;43.264;26.940;2023-01-16T13:51:42;98292.47;;;8.92;65.75
40872;BME280;26591;43.264;26.940;2023-01-16T13:54:15;98298.44;;;8.86;66.32
40872;BME280;26591;43.264;26.940;2023-01-16T13:56:41;98291.13;;;8.96;66.25
40872;BME280;26591;43.264;26.940;2023-01-16T13:59:29;98289.97;;;8.99;66.48
40872;BME280;26591;43.264;26.940;2023-01-16T14:01:58;98283.47;;;8.78;67.05
40872;BME280;26591;43.264;26.940;2023-01-16T14:06:51;98294.78;;;8.55;67.66
40872;BME280;26591;43.264;26.940;2023-01-16T14:12:33;98287.25;;;8.36;68.93
40872;BME280;26591;43.264;26.940;2023-01-16T14:15:15;98289.59;;;8.31;68.88
40872;BME280;26591;43.264;26.940;2023-01-16T14:18:20;98288.28;;;8.27;69.04
40872;BME280;26591;43.264;26.940;2023-01-16T14:20:51;98284.97;;;8.24;69.44
40872;BME280;26591;43.264;26.940;2023-01-16T14:23:31;98285.50;;;8.20;69.58
40872;BME280;26591;43.264;26.940;2023-01-16T14:29:20;98280.66;;;8.32;69.36
40872;BME280;26591;43.264;26.940;2023-01-16T14:32:19;98276.88;;;8.26;69.72
40872;BME280;26591;43.264;26.940;2023-01-16T14:42:53;98273.03;;;7.89;70.77
40872;BME280;26591;43.264;26.940;2023-01-16T14:45:39;98276.19;;;7.76;71.15
40872;BME280;26591;43.264;26.940;2023-01-16T14:59:32;98250.28;;;8.04;71.31
40872;BME280;26591;43.264;26.940;2023-01-16T15:02:08;98250.19;;;8.37;70.29
40872;BME280;26591;43.264;26.940;2023-01-16T15:07:41;98262.03;;;7.85;70.81
40872;BME280;26591;43.264;26.940;2023-01-16T15:10:22;98260.22;;;7.77;71.17
40872;BME280;26591;43.264;26.940;2023-01-16T15:12:50;98269.13;;;7.60;72.55
40872;BME280;26591;43.264;26.940;2023-01-16T15:15:21;98269.94;;;7.69;72.44
40872;BME280;26591;43.264;26.940;2023-01-16T15:17:49;98263.03;;;7.68;72.38
40872;BME280;26591;43.264;26.940;2023-01-16T15:20:37;98262.56;;;7.64;72.05
40872;BME280;26591;43.264;26.940;2023-01-16T15:26:07;98268.81;;;7.63;73.42
40872;BME280;26591;43.264;26.940;2023-01-16T15:29:00;98271.28;;;7.56;73.17
40872;BME280;26591;43.264;26.940;2023-01-16T15:31:35;98267.97;;;7.46;74.02
40872;BME280;26591;43.264;26.940;2023-01-16T15:34:16;98266.81;;;7.24;74.12
40872;BME280;26591;43.264;26.940;2023-01-16T15:36:48;98268.31;;;7.10;75.27
40872;BME280;26591;43.264;26.940;2023-01-16T15:42:00;98255.97;;;7.18;75.75
40872;BME280;26591;43.264;26.940;2023-01-16T15:44:45;98251.19;;;7.22;75.27
40872;BME280;26591;43.264;26.940;2023-01-16T15:52:39;98250.72;;;7.43;75.02
40872;BME280;26591;43.264;26.940;2023-01-16T15:55:20;98248.41;;;7.57;74.98
40872;BME280;26591;43.264;26.940;2023-01-16T15:57:50;98242.16;;;7.41;75.42
40872;BME280;26591;43.264;26.940;2023-01-16T16:00:32;98238.53;;;7.26;75.46
40872;BME280;26591;43.264;26.940;2023-01-16T16:03:01;98246.44;;;7.26;75.45
40872;BME280;26591;43.264;26.940;2023-01-16T16:05:28;98251.53;;;7.27;75.25
40872;BME280;26591;43.264;26.940;2023-01-16T16:07:54;98247.56;;;7.31;75.20
40872;BME280;26591;43.264;26.940;2023-01-16T16:10:21;98244.63;;;7.35;75.09
40872;BME280;26591;43.264;26.940;2023-01-16T16:13:06;98237.22;;;7.05;76.28
40872;BME280;26591;43.264;26.940;2023-01-16T16:15:32;98242.94;;;6.92;77.53
40872;BME280;26591;43.264;26.940;2023-01-16T16:18:18;98233.06;;;6.78;78.21
40872;BME280;26591;43.264;26.940;2023-01-16T16:20:47;98228.50;;;6.96;78.54
40872;BME280;26591;43.264;26.940;2023-01-16T16:23:16;98228.84;;;7.10;77.89
40872;BME280;26591;43.264;26.940;2023-01-16T16:31:05;98205.28;;;6.92;78.76
40872;BME280;26591;43.264;26.940;2023-01-16T16:33:32;98199.22;;;6.83;79.56